Lauderdale, MS (39335)

8:10 PM CST on March 01, 2015 (GMT -0600)
3.2 NW Meridian (Pine Springs Rd.) | Change Station
CLOSE
Current Station
Personal Weather Station
Location: Meridian, MS
Elevation: 328 ft
Nearby Weather Stations

Elev 328 ft 32.42 °N, 88.75 °W | Updated 30 seconds ago

Overcast
Overcast
55.2 °F
Feels Like 55.2 °F
N
3.0
Wind Variable Wind from NNW
Gusts 8.0 mph

Today
High -- | Low -- °F
--% Chance of Precip.
Yesterday
High -- | Low -- °F
Precip. -- in
6:22 AM 5:52 PM
Waxing Gibbous, 88% visible
Pressure 30.30 in
Visibility 10.0 miles
Clouds Overcast 500 ft
Dew Point 55 °F
Humidity 99%
Rainfall 0.40 in
Snow Depth Not available.
UV 0 out of 12
Pollen 8.70 out of 12
Air Quality Not available.
Flu Activity Not available.
METAR KMEI 020158Z 17011KT 10SM OVC005 13/12 A3030 RMK AO2 PRESFR SLP259 T01280122

More Conditions Fewer Conditions

Pressure 30.30 in
Visibility 10.0 miles
Clouds Overcast 500 ft
Dew Point 55 °F
Humidity 99%
Rainfall 0.40 in
Snow Depth Not available.
UV 0 out of 12
Pollen 8.70 out of 12
Air Quality Not available.
Flu Activity Not available.
METAR KMEI 020158Z 17011KT 10SM OVC005 13/12 A3030 RMK AO2 PRESFR SLP259 T01280122

More Conditions Fewer Conditions

10-Day Weather Forecast

Almanac

Astronomy

Mar. 01, 2015 Rise Set
Actual Time
Civil Twilight
Nautical Twilight
Astronomical Twilight
Moon
Length of Visible Light
Length of Day
Tomorrow will be .
, % of the Moon is Illuminated

Today's Extremes

State Highs State Lows

Community

WunderPhotos

Upload Photos

1,801,683 photos uploaded!

WunderBlogs® & News

Nearby

Air Quality

  Air Quality AQ Index Pollutant
Not available.

Snow Depth

Station Depth Elevation

Earthquake Activity

City Distance Mag. Time & Date
Minimum magnitude displayed is 2.5.

Coastal Water Temperatures

Place Temperature

Nearby Weather Stations